Time,TemperatureF,DewpointF,PressureIn,WindDirection,WindDirectionDegrees,WindSpeedMPH,WindSpeedGustMPH,Humidity,HourlyPrecipIn,Conditions,Clouds,dailyrainin,SoftwareType,DateUTC
2013-01-06 16:12:00,29.0,21.0,-100.00,ESE,115,4.0,8.0,71,-99.99,,,-99.99,,2013-01-06 21:12:00,
2013-01-06 16:22:00,29.0,21.0,-100.00,SE,130,6.0,9.0,71,-99.99,,,-99.99,,2013-01-06 21:22:00,
2013-01-06 16:43:00,29.0,21.0,-100.00,East,80,2.0,7.0,71,-99.99,,,-99.99,,2013-01-06 21:43:00,
2013-01-06 16:52:00,29.0,21.0,-100.00,ENE,65,4.0,6.0,70,-99.99,,,-99.99,,2013-01-06 21:52:00,
2013-01-06 17:02:00,29.0,21.0,-100.00,ENE,60,4.0,7.0,70,-99.99,,,-99.99,,2013-01-06 22:02:00,
2013-01-06 17:12:00,29.0,21.0,-100.00,ENE,60,4.0,7.0,70,-99.99,,,-99.99,,2013-01-06 22:12:00,
2013-01-06 17:22:00,29.0,21.0,-100.00,East,90,1.0,9.0,70,-99.99,,,-99.99,,2013-01-06 22:22:00,
2013-01-06 17:33:00,29.0,21.0,-100.00,ESE,110,8.0,14.0,72,-99.99,,,-99.99,,2013-01-06 22:33:00,
2013-01-06 17:43:00,29.0,21.0,-100.00,ESE,110,8.0,14.0,72,-99.99,,,-99.99,,2013-01-06 22:43:00,
2013-01-06 17:52:00,29.0,21.0,-100.00,East,80,3.0,9.0,73,-99.99,,,-99.99,,2013-01-06 22:52:00,
2013-01-06 18:02:00,29.0,21.0,-100.00,East,100,6.0,11.0,73,-99.99,,,-99.99,,2013-01-06 23:02:00,
2013-01-06 18:13:00,29.0,21.0,-100.00,East,100,6.0,11.0,73,-99.99,,,-99.99,,2013-01-06 23:13:00,
2013-01-06 18:22:00,29.0,21.0,-100.00,East,100,5.0,9.0,74,-99.99,,,-99.99,,2013-01-06 23:22:00,
2013-01-06 18:33:00,29.0,22.0,-100.00,NE,55,7.0,14.0,75,-99.99,,,-99.99,,2013-01-06 23:33:00,
2013-01-06 18:43:00,29.0,22.0,-100.00,NE,55,7.0,14.0,75,-99.99,,,-99.99,,2013-01-06 23:43:00,
2013-01-06 18:53:00,28.0,22.0,-100.00,ESE,110,6.0,14.0,77,-99.99,,,-99.99,,2013-01-06 23:53:00,
2013-01-06 19:03:00,28.0,22.0,-100.00,East,100,4.0,13.0,77,-99.99,,,-99.99,,2013-01-07 00:03:00,
2013-01-06 19:12:00,28.0,22.0,-100.00,East,100,4.0,13.0,77,-99.99,,,-99.99,,2013-01-07 00:12:00,
2013-01-06 19:23:00,28.0,22.0,-100.00,East,95,6.0,12.0,78,-99.99,,,-99.99,,2013-01-07 00:23:00,
2013-01-06 19:33:00,28.0,21.0,-100.00,ENE,60,3.0,11.0,77,-99.99,,,-99.99,,2013-01-07 00:33:00,
2013-01-06 19:43:00,28.0,21.0,-100.00,ENE,60,3.0,11.0,77,-99.99,,,-99.99,,2013-01-07 00:43:00,
2013-01-06 19:53:00,28.0,21.0,-100.00,ENE,70,3.0,10.0,77,-99.99,,,-99.99,,2013-01-07 00:53:00,
2013-01-06 20:03:00,27.0,21.0,-100.00,ENE,65,5.0,11.0,76,-99.99,,,-99.99,,2013-01-07 01:03:00,
2013-01-06 20:12:00,27.0,21.0,-100.00,ENE,65,5.0,11.0,76,-99.99,,,-99.99,,2013-01-07 01:12:00,
2013-01-06 20:23:00,27.0,21.0,-100.00,ENE,70,4.0,9.0,77,-99.99,,,-99.99,,2013-01-07 01:23:00,
2013-01-06 20:32:00,27.0,21.0,-100.00,ENE,60,6.0,11.0,77,-99.99,,,-99.99,,2013-01-07 01:32:00,
2013-01-06 20:43:00,27.0,21.0,-100.00,ENE,60,6.0,11.0,77,-99.99,,,-99.99,,2013-01-07 01:43:00,
2013-01-06 20:52:00,27.0,20.0,-100.00,ESE,120,4.0,9.0,76,-99.99,,,-99.99,,2013-01-07 01:52:00,
2013-01-06 21:02:00,26.0,19.0,-100.00,ENE,75,2.0,14.0,74,-99.99,,,-99.99,,2013-01-07 02:02:00,
2013-01-06 21:12:00,26.0,19.0,-100.00,ENE,75,2.0,14.0,74,-99.99,,,-99.99,,2013-01-07 02:12:00,
2013-01-06 21:23:00,26.0,19.0,-100.00,ESE,110,5.0,8.0,75,-99.99,,,-99.99,,2013-01-07 02:23:00,
2013-01-06 21:32:00,26.0,19.0,-100.00,NE,55,4.0,7.0,75,-99.99,,,-99.99,,2013-01-07 02:32:00,
2013-01-06 21:42:00,26.0,19.0,-100.00,NE,55,4.0,7.0,75,-99.99,,,-99.99,,2013-01-07 02:42:00,
2013-01-06 21:53:00,26.0,20.0,-100.00,ENE,70,4.0,6.0,76,-99.99,,,-99.99,,2013-01-07 02:53:00,
2013-01-06 22:02:00,26.0,20.0,-100.00,ENE,60,3.0,7.0,76,-99.99,,,-99.99,,2013-01-07 03:02:00,
2013-01-06 22:12:00,26.0,20.0,-100.00,ENE,60,3.0,7.0,76,-99.99,,,-99.99,,2013-01-07 03:12:00,
2013-01-06 22:23:00,26.0,19.0,-100.00,NNE,25,2.0,8.0,75,-99.99,,,-99.99,,2013-01-07 03:23:00,
2013-01-06 22:33:00,26.0,19.0,-100.00,ENE,60,6.0,11.0,75,-99.99,,,-99.99,,2013-01-07 03:33:00,
2013-01-06 22:43:00,26.0,19.0,-100.00,ENE,60,6.0,11.0,75,-99.99,,,-99.99,,2013-01-07 03:43:00,
2013-01-06 22:52:00,25.0,19.0,-100.00,NE,45,4.0,7.0,76,-99.99,,,-99.99,,2013-01-07 03:52:00,
2013-01-06 23:02:00,25.0,18.0,-100.00,NE,40,7.0,11.0,75,-99.99,,,-99.99,,2013-01-07 04:02:00,
2013-01-06 23:13:00,25.0,18.0,-100.00,NNW,335,4.0,9.0,74,-99.99,,,-99.99,,2013-01-07 04:13:00,
2013-01-06 23:22:00,25.0,18.0,-100.00,NNW,335,4.0,9.0,74,-99.99,,,-99.99,,2013-01-07 04:22:00,
2013-01-06 23:33:00,25.0,18.0,-100.00,North,350,2.0,7.0,73,-99.99,,,-99.99,,2013-01-07 04:33:00,
2013-01-06 23:42:00,25.0,18.0,-100.00,North,350,2.0,7.0,73,-99.99,,,-99.99,,2013-01-07 04:42:00,
2013-01-06 23:52:00,25.0,17.0,-100.00,NNE,20,4.0,9.0,73,-99.99,,,-99.99,,2013-01-07 04:52:00,